createdAt,value
2022-09-15T00:15:18.616Z,4.69
2022-09-15T00:31:01.143Z,5
2022-09-15T00:46:44.155Z,5
2022-09-15T01:02:26.678Z,5.4
2022-09-15T01:18:08.770Z,5.3
2022-09-15T01:33:51.584Z,6.4
2022-09-15T01:49:33.745Z,7.4
2022-09-15T02:05:16.580Z,7.6
2022-09-15T02:20:58.711Z,7.5
2022-09-15T02:36:41.685Z,8
2022-09-15T02:52:24.485Z,8
2022-09-15T03:08:06.588Z,8.39
2022-09-15T03:23:49.232Z,8.3
2022-09-15T03:39:31.811Z,9.39
2022-09-15T03:55:14.140Z,8.6
2022-09-15T04:10:56.960Z,9
2022-09-15T04:26:39.986Z,9.5
2022-09-15T04:42:22.862Z,10.3
2022-09-15T04:58:05.375Z,10
2022-09-15T05:13:47.466Z,10.9
2022-09-15T05:29:29.617Z,10.7
2022-09-15T05:45:12.464Z,9.7
2022-09-15T06:00:54.833Z,7.4
2022-09-15T06:16:37.358Z,7
2022-09-15T06:32:20.156Z,5.8
2022-09-15T06:48:02.511Z,5.2
2022-09-15T07:03:45.275Z,3.3
2022-09-15T07:19:27.691Z,2.7
2022-09-15T07:35:10.312Z,2.3
2022-09-15T07:50:52.907Z,1.9
2022-09-15T08:06:35.439Z,2.09
2022-09-15T08:22:17.983Z,1.9
2022-09-15T08:38:00.071Z,1.8
2022-09-15T08:53:42.343Z,1.8
2022-09-15T09:09:24.997Z,1.6
2022-09-15T09:25:07.970Z,1.4
2022-09-15T09:25:55.323Z,1.3
2022-09-15T09:41:37.275Z,1.5
2022-09-15T09:57:19.568Z,1.1
2022-09-15T10:13:02.444Z,1.1
2022-09-15T10:28:45.218Z,1.3
2022-09-15T10:44:27.736Z,0.8
2022-09-15T11:00:10.171Z,0.9
2022-09-15T11:15:52.642Z,0.7
2022-09-15T11:31:35.436Z,0.7
2022-09-15T11:47:17.528Z,0.6
2022-09-15T12:02:59.534Z,0.6
2022-09-15T12:18:41.765Z,0.8
2022-09-15T12:34:24.327Z,0.9
2022-09-15T12:50:06.780Z,0.9
2022-09-15T13:05:49.026Z,0.9
2022-09-15T13:21:31.192Z,1
2022-09-15T13:37:14.139Z,0.8
2022-09-15T13:52:56.778Z,1
2022-09-15T14:08:38.883Z,0.7
2022-09-15T14:24:21.091Z,0.7
2022-09-15T14:40:03.603Z,0.8
2022-09-15T14:55:46.090Z,0.7
2022-09-15T15:11:28.249Z,0.7
2022-09-15T15:27:10.691Z,0.9
2022-09-15T15:42:52.716Z,0.5
2022-09-15T15:58:35.700Z,0.6
2022-09-15T16:14:17.771Z,0.9
2022-09-15T16:30:00.382Z,0.7
2022-09-15T16:45:42.870Z,0.9
2022-09-15T17:01:25.683Z,1
2022-09-15T17:17:07.728Z,0.7
2022-09-15T17:32:50.716Z,0.9
2022-09-15T17:48:33.651Z,0.7
2022-09-15T18:04:16.002Z,0.6
2022-09-15T18:19:58.323Z,0.7
2022-09-15T18:35:40.943Z,0.5
2022-09-15T18:51:23.388Z,0.6
2022-09-15T19:07:05.769Z,0.6
2022-09-15T19:22:47.884Z,0.9
2022-09-15T19:38:30.112Z,0.8
2022-09-15T19:54:12.426Z,0.8
2022-09-15T20:09:55.319Z,1
2022-09-15T20:25:37.405Z,0.9
2022-09-15T20:41:19.755Z,0.9
2022-09-15T20:57:02.100Z,0.8
2022-09-15T21:12:44.916Z,0.9
2022-09-15T21:28:27.217Z,1.1
2022-09-15T21:44:09.318Z,1.1
2022-09-15T21:59:51.527Z,1
2022-09-15T22:15:34.453Z,1.2
2022-09-15T22:31:17.064Z,0.9
2022-09-15T22:46:59.129Z,1
2022-09-15T23:02:41.996Z,0.9
2022-09-15T23:18:24.604Z,0.7
2022-09-15T23:34:07.453Z,0.8
2022-09-15T23:49:50.205Z,0.8
